Kezdőlap
METAR-TAF:

METAR-TAF

Repülőterek :

Loei, Thaiföld

földrajzi szélesség: 17-27N, földrajzi hosszúság: 101-44E, magasság: 253 m

Jelenlegi meteorológiai megfigyelések

A jelentés 3 órával és 35 perccel ezelõtt készült, 12:00 UTC
Különbözõ irányokból fújó szél 1 kt
Hőmérséklet 28°C
Páratartalom 84%
Légköri nyomás 1008 hPa
Látótávolság 10 km, vagy több
Szórványos felhőzet 3000 lábon

METAR: VTUL 121200Z VRB01KT 9999 SCT030 28/25 Q1008 NOSIG

Idő: 22:35 (15:35 UTC)

Előrejelzés

A jelentés 4 órával és 35 perccel ezelõtt készült, 11:00 UTC
Az előrejelzés 12-én 12 óra UTC és 13-én 12 óra UTC között érvényes
Délnyugati szél 7 kt
Látótávolság: 9000 m
Kevés felhő 3000 lábon

TAF: VTUL 121100Z 1212/1312 23007KT 9000 FEW030

Meteorológiai megfigyelések és előrejelzések több, mint 4000 repülőtéren (METAR és TAF jelentéseket).

A térképen piros és sárga pontok jelzik az elérhető meteorológiai állomásokat.

Mozgassa az egeret a pont fölött, hogy megjelenjen az állomás neve.

Azután kattintson az időjárási megfigyelések és előrejelzések megtekintéséhez.

A térkép megváltoztatása: kattintson a fekete keresztel jelölt zöld gombra ráközelítéshez, a vonallal jelölt zöld gombra távolításhoz, vagy a zöld nyilakra a szomszédos térképek eléréséhez.


METAR-TAF: